Time;durP1;ratioP1;P1;durP2;ratioP2;P2;SDS_P1;SDS_P2;PMS_P1;PMS_P2;Temp;Humidity;BMP_temperature;BMP_pressure;BME280_temperature;BME280_humidity;BME280_pressure;Samples;Min_cycle;Max_cycle;Signal;HPM_P1;HPM_P2
2022/12/31 00:00:35;;;;;;;1.20;1.13;;;;;;;;;;4847912;29;20037;-59
2022/12/31 00:03:01;;;;;;;1.10;1.00;;;;;;;;;;4844769;29;20504;-59
2022/12/31 00:05:28;;;;;;;1.67;1.20;;;;;;;;;;4840449;29;20030;-58
2022/12/31 00:07:56;;;;;;;1.58;1.20;;;;;;;;;;4849510;29;20474;-59
2022/12/31 00:10:21;;;;;;;1.60;1.20;;;;;;;;;;4845182;29;20044;-58
2022/12/31 00:12:46;;;;;;;1.20;1.10;;;;;;;;;;4849587;29;20109;-59
2022/12/31 00:15:12;;;;;;;3.60;1.20;;;;;;;;;;4843806;29;20112;-59
2022/12/31 00:17:37;;;;;;;2.15;1.50;;;;;;;;;;4845298;29;20037;-59
2022/12/31 00:20:02;;;;;;;1.98;1.27;;;;;;;;;;4849338;29;20407;-58
2022/12/31 00:22:28;;;;;;;1.70;1.20;;;;;;;;;;4855393;29;20057;-59
2022/12/31 00:24:53;;;;;;;2.67;1.27;;;;;;;;;;4850001;29;20022;-59
2022/12/31 00:27:21;;;;;;;1.45;1.00;;;;;;;;;;4843371;29;20053;-59
2022/12/31 00:29:47;;;;;;;1.40;0.98;;;;;;;;;;4842179;29;20116;-59
2022/12/31 00:32:12;;;;;;;2.50;1.10;;;;;;;;;;4849331;29;20537;-59
2022/12/31 00:34:37;;;;;;;1.48;1.20;;;;;;;;;;4841242;29;20053;-58
2022/12/31 00:37:02;;;;;;;1.15;1.08;;;;;;;;;;4847934;29;20496;-59
2022/12/31 00:39:28;;;;;;;1.38;0.90;;;;;;;;;;4845055;29;20021;-59
2022/12/31 00:41:53;;;;;;;1.48;1.02;;;;;;;;;;4842186;29;20042;-58
2022/12/31 00:44:19;;;;;;;1.10;0.98;;;;;;;;;;4848401;29;20069;-59
2022/12/31 00:46:44;;;;;;;2.17;1.40;;;;;;;;;;4842508;29;20511;-59
2022/12/31 00:49:09;;;;;;;1.58;1.20;;;;;;;;;;4846962;29;20041;-60
2022/12/31 00:51:35;;;;;;;2.60;1.23;;;;;;;;;;4844890;29;20037;-59
2022/12/31 00:54:00;;;;;;;1.23;0.95;;;;;;;;;;4842237;29;20128;-59
2022/12/31 00:56:26;;;;;;;2.85;1.20;;;;;;;;;;4845403;29;20098;-60
2022/12/31 00:58:52;;;;;;;1.90;1.13;;;;;;;;;;4843639;29;20799;-59
2022/12/31 01:01:18;;;;;;;2.25;1.30;;;;;;;;;;4838834;29;20034;-59
2022/12/31 01:03:43;;;;;;;2.90;1.40;;;;;;;;;;4846262;29;20041;-60
2022/12/31 01:06:09;;;;;;;4.25;1.00;;;;;;;;;;4842170;29;20034;-59
2022/12/31 01:08:34;;;;;;;3.28;1.30;;;;;;;;;;4844982;29;20094;-59
2022/12/31 01:11:19;;;;;;;1.75;1.17;;;;;;;;;;4870031;29;20075;-58
2022/12/31 01:14:04;;;;;;;1.25;1.10;;;;;;;;;;4840199;29;20263;-59
2022/12/31 01:16:30;;;;;;;1.65;1.02;;;;;;;;;;4849193;29;20076;-59
2022/12/31 01:18:57;;;;;;;1.75;1.33;;;;;;;;;;4842540;29;20112;-58
2022/12/31 01:21:22;;;;;;;2.25;1.23;;;;;;;;;;4848041;29;20057;-58
2022/12/31 01:23:48;;;;;;;1.23;0.95;;;;;;;;;;4842015;29;20041;-59
2022/12/31 01:26:14;;;;;;;1.20;1.10;;;;;;;;;;4842646;29;20026;-58
2022/12/31 01:28:39;;;;;;;1.48;1.38;;;;;;;;;;4850143;29;20462;-58
2022/12/31 01:31:10;;;;;;;1.65;1.20;;;;;;;;;;4842702;29;20090;-59
2022/12/31 01:33:35;;;;;;;1.65;1.23;;;;;;;;;;4845124;29;20048;-60
2022/12/31 01:36:05;;;;;;;1.55;1.10;;;;;;;;;;4848208;29;20034;-58
2022/12/31 01:38:31;;;;;;;1.23;1.10;;;;;;;;;;4854441;29;20478;-59
2022/12/31 01:40:57;;;;;;;1.10;1.00;;;;;;;;;;4850315;29;20041;-58
2022/12/31 01:43:22;;;;;;;1.90;1.45;;;;;;;;;;4842400;29;20085;-59
2022/12/31 01:45:52;;;;;;;1.25;1.15;;;;;;;;;;4840573;29;20105;-58
2022/12/31 01:48:19;;;;;;;1.35;1.10;;;;;;;;;;4847038;29;20121;-59
2022/12/31 01:50:45;;;;;;;2.05;1.23;;;;;;;;;;4841919;29;20753;-59
2022/12/31 01:53:11;;;;;;;2.10;1.20;;;;;;;;;;4848444;29;20055;-58
2022/12/31 01:55:46;;;;;;;4.45;1.27;;;;;;;;;;4844472;29;20047;-58
2022/12/31 01:58:17;;;;;;;1.40;1.23;;;;;;;;;;4845856;29;20137;-59
2022/12/31 02:00:43;;;;;;;1.55;1.10;;;;;;;;;;4847522;29;20644;-59
2022/12/31 02:03:08;;;;;;;2.05;1.20;;;;;;;;;;4843265;29;20074;-59
2022/12/31 02:05:46;;;;;;;1.30;1.20;;;;;;;;;;4851963;29;21040;-59
2022/12/31 02:08:15;;;;;;;4.53;1.30;;;;;;;;;;4850750;29;20042;-59
2022/12/31 02:10:40;;;;;;;1.10;1.00;;;;;;;;;;4847435;29;20040;-59
2022/12/31 02:13:06;;;;;;;3.60;1.30;;;;;;;;;;4853132;29;20033;-60
2022/12/31 02:15:38;;;;;;;2.25;1.40;;;;;;;;;;4877962;29;20049;-59
2022/12/31 02:18:25;;;;;;;1.77;1.20;;;;;;;;;;4844801;29;20048;-58
2022/12/31 02:21:09;;;;;;;3.70;1.30;;;;;;;;;;4879620;29;20037;-59
2022/12/31 02:23:38;;;;;;;1.48;1.25;;;;;;;;;;4847314;29;20121;-59
2022/12/31 02:26:22;;;;;;;2.95;1.30;;;;;;;;;;4845656;29;20033;-59
2022/12/31 02:29:05;;;;;;;2.97;1.13;;;;;;;;;;4850461;29;20085;-59
2022/12/31 02:31:38;;;;;;;2.17;1.23;;;;;;;;;;4846949;29;20060;-59
2022/12/31 02:34:06;;;;;;;2.55;1.40;;;;;;;;;;4847707;29;20040;-60
2022/12/31 02:36:33;;;;;;;3.92;1.40;;;;;;;;;;4849313;29;20069;-59
2022/12/31 02:38:59;;;;;;;1.65;1.20;;;;;;;;;;4845791;29;20087;-59
2022/12/31 02:44:27;;;;;;;2.67;1.40;;;;;;;;;;4847311;29;20037;-60
2022/12/31 02:46:58;;;;;;;2.55;1.30;;;;;;;;;;4846830;29;20206;-59
2022/12/31 02:49:29;;;;;;;2.15;1.42;;;;;;;;;;4848448;29;20029;-59
2022/12/31 02:52:02;;;;;;;3.20;1.30;;;;;;;;;;4844248;29;20124;-60
2022/12/31 02:54:39;;;;;;;3.10;1.60;;;;;;;;;;4843140;29;20120;-59
2022/12/31 02:57:23;;;;;;;3.03;1.60;;;;;;;;;;4846997;29;20066;-59
2022/12/31 03:02:43;;;;;;;3.35;1.40;;;;;;;;;;4874860;29;20190;-58
2022/12/31 03:05:09;;;;;;;3.22;1.50;;;;;;;;;;4849975;29;20068;-59
2022/12/31 03:07:34;;;;;;;4.50;1.50;;;;;;;;;;4842243;29;20124;-59
2022/12/31 03:10:00;;;;;;;3.22;1.40;;;;;;;;;;4849109;29;20037;-58
2022/12/31 03:12:47;;;;;;;2.17;1.30;;;;;;;;;;4842893;29;20041;-59
2022/12/31 03:15:20;;;;;;;2.15;1.40;;;;;;;;;;4842141;29;20537;-59
2022/12/31 03:17:46;;;;;;;3.40;1.60;;;;;;;;;;4847343;29;20596;-59
2022/12/31 03:22:56;;;;;;;2.60;1.30;;;;;;;;;;4842230;29;20848;-59
2022/12/31 03:25:39;;;;;;;2.53;1.20;;;;;;;;;;4847197;29;20116;-59
2022/12/31 03:28:08;;;;;;;3.95;1.40;;;;;;;;;;4845713;29;20060;-59
2022/12/31 03:30:34;;;;;;;1.65;1.30;;;;;;;;;;4874379;29;20034;-59
2022/12/31 03:33:00;;;;;;;2.28;1.25;;;;;;;;;;4848806;29;20113;-59
2022/12/31 03:35:26;;;;;;;1.52;1.30;;;;;;;;;;4842116;29;20109;-60
2022/12/31 03:37:52;;;;;;;2.75;1.40;;;;;;;;;;4849733;29;20121;-59
2022/12/31 03:40:18;;;;;;;1.33;1.10;;;;;;;;;;4873587;29;20426;-61
2022/12/31 03:42:44;;;;;;;2.17;1.47;;;;;;;;;;4843431;29;20034;-59
2022/12/31 03:45:10;;;;;;;2.13;1.25;;;;;;;;;;4850181;29;20863;-59
2022/12/31 03:47:35;;;;;;;3.75;1.40;;;;;;;;;;4844034;29;20037;-60
2022/12/31 03:50:01;;;;;;;2.60;1.30;;;;;;;;;;4876648;29;20045;-60
2022/12/31 03:52:26;;;;;;;3.75;1.50;;;;;;;;;;4844632;29;20061;-59
2022/12/31 03:54:51;;;;;;;1.23;1.13;;;;;;;;;;4843720;29;20106;-59
2022/12/31 03:57:16;;;;;;;2.63;1.27;;;;;;;;;;4849408;29;20652;-59
2022/12/31 03:59:42;;;;;;;2.60;1.35;;;;;;;;;;4846744;29;20045;-59
2022/12/31 04:02:07;;;;;;;4.05;1.50;;;;;;;;;;4851834;29;20030;-58
2022/12/31 04:04:32;;;;;;;3.05;1.77;;;;;;;;;;4843086;29;20392;-59
2022/12/31 04:06:58;;;;;;;1.33;1.17;;;;;;;;;;4843663;29;20472;-59
2022/12/31 04:09:23;;;;;;;3.38;1.33;;;;;;;;;;4847411;29;20037;-59
2022/12/31 04:11:48;;;;;;;1.20;1.02;;;;;;;;;;4872574;29;20029;-59
2022/12/31 04:14:15;;;;;;;3.17;1.33;;;;;;;;;;4849692;29;20026;-59
2022/12/31 04:16:41;;;;;;;0.90;0.90;;;;;;;;;;4843486;29;20430;-59
2022/12/31 04:19:06;;;;;;;2.80;1.25;;;;;;;;;;4874673;29;20097;-59
2022/12/31 04:21:31;;;;;;;1.05;0.95;;;;;;;;;;4847640;29;20038;-59
2022/12/31 04:23:57;;;;;;;2.10;1.27;;;;;;;;;;4844459;29;20073;-60
2022/12/31 04:26:22;;;;;;;1.88;1.10;;;;;;;;;;4849173;29;20026;-60
2022/12/31 04:28:47;;;;;;;1.67;1.30;;;;;;;;;;4872723;29;20041;-59
2022/12/31 04:31:13;;;;;;;3.38;1.20;;;;;;;;;;4843906;29;20055;-59
2022/12/31 04:33:38;;;;;;;2.97;1.25;;;;;;;;;;4849956;29;20128;-60
2022/12/31 04:36:04;;;;;;;3.30;1.38;;;;;;;;;;4844593;29;20044;-59
2022/12/31 04:38:30;;;;;;;1.23;1.00;;;;;;;;;;4850635;29;20034;-59
2022/12/31 04:43:39;;;;;;;1.55;1.20;;;;;;;;;;4844026;29;20104;-59
2022/12/31 04:46:05;;;;;;;1.30;1.20;;;;;;;;;;4847448;29;20117;-59
2022/12/31 04:48:31;;;;;;;1.67;1.00;;;;;;;;;;4871072;29;20612;-58
2022/12/31 04:50:56;;;;;;;1.95;1.25;;;;;;;;;;4847558;29;20120;-59
2022/12/31 04:53:23;;;;;;;8.25;1.30;;;;;;;;;;4844358;29;20477;-59
2022/12/31 04:55:48;;;;;;;2.35;1.20;;;;;;;;;;4842081;29;20033;-60
2022/12/31 04:58:13;;;;;;;1.35;1.20;;;;;;;;;;4845706;29;20090;-59
2022/12/31 05:00:39;;;;;;;1.73;1.02;;;;;;;;;;4840337;29;20032;-60
2022/12/31 05:03:04;;;;;;;2.88;1.20;;;;;;;;;;4844701;29;20034;-60
2022/12/31 05:05:29;;;;;;;3.22;1.70;;;;;;;;;;4845810;29;20049;-59
2022/12/31 05:07:55;;;;;;;3.08;1.65;;;;;;;;;;4841295;29;20037;-59
2022/12/31 05:10:20;;;;;;;9.82;3.55;;;;;;;;;;4848889;29;20045;-60
2022/12/31 05:12:45;;;;;;;2.85;1.50;;;;;;;;;;4843892;29;20093;-59
2022/12/31 05:15:10;;;;;;;3.50;1.35;;;;;;;;;;4847570;29;20400;-59
2022/12/31 05:17:36;;;;;;;1.17;1.08;;;;;;;;;;4843474;29;20086;-59
2022/12/31 05:20:01;;;;;;;2.60;1.20;;;;;;;;;;4871291;29;20388;-59
2022/12/31 05:22:29;;;;;;;3.75;1.30;;;;;;;;;;4845553;29;20037;-58
2022/12/31 05:24:56;;;;;;;3.03;1.20;;;;;;;;;;4844118;29;20048;-59
2022/12/31 05:27:21;;;;;;;1.20;1.05;;;;;;;;;;4850212;29;20049;-59
2022/12/31 05:29:47;;;;;;;1.50;1.08;;;;;;;;;;4868478;29;20033;-59
2022/12/31 05:32:12;;;;;;;2.17;1.40;;;;;;;;;;4842756;29;20032;-59
2022/12/31 05:34:37;;;;;;;2.20;1.48;;;;;;;;;;4846115;29;20041;-59
2022/12/31 05:37:02;;;;;;;3.03;1.15;;;;;;;;;;4841665;29;20408;-59
2022/12/31 05:39:28;;;;;;;1.10;1.00;;;;;;;;;;4843231;29;20071;-59
2022/12/31 05:41:53;;;;;;;1.02;0.93;;;;;;;;;;4840207;29;20044;-59
2022/12/31 05:44:18;;;;;;;1.27;1.10;;;;;;;;;;4841140;29;20474;-59
2022/12/31 05:46:44;;;;;;;1.98;1.23;;;;;;;;;;4844085;29;20465;-59
2022/12/31 05:49:09;;;;;;;1.65;1.08;;;;;;;;;;4844208;29;20049;-59
2022/12/31 05:51:34;;;;;;;2.53;1.00;;;;;;;;;;4847555;29;20053;-59
2022/12/31 05:54:00;;;;;;;1.48;1.05;;;;;;;;;;4842364;29;20046;-59
2022/12/31 05:56:25;;;;;;;1.10;1.00;;;;;;;;;;4842694;29;20136;-60
2022/12/31 05:58:50;;;;;;;5.38;1.27;;;;;;;;;;4847854;29;20041;-59
2022/12/31 06:01:15;;;;;;;1.20;1.10;;;;;;;;;;4842327;29;20041;-60
2022/12/31 06:03:41;;;;;;;1.58;1.20;;;;;;;;;;4844447;29;20045;-60
2022/12/31 06:06:06;;;;;;;2.78;1.15;;;;;;;;;;4841983;29;20033;-59
2022/12/31 06:08:35;;;;;;;1.05;0.95;;;;;;;;;;4840919;29;20045;-58
2022/12/31 06:11:00;;;;;;;2.30;1.40;;;;;;;;;;4844733;29;20040;-58
2022/12/31 06:13:25;;;;;;;2.78;1.17;;;;;;;;;;4842629;29;20037;-59
2022/12/31 06:15:50;;;;;;;1.20;1.10;;;;;;;;;;4843682;29;20548;-63
2022/12/31 06:18:16;;;;;;;3.17;1.20;;;;;;;;;;4840505;29;20133;-58
2022/12/31 06:20:41;;;;;;;2.97;1.30;;;;;;;;;;4840883;29;20033;-59
2022/12/31 06:23:06;;;;;;;2.35;1.27;;;;;;;;;;4846911;29;20061;-58
2022/12/31 06:25:34;;;;;;;1.48;1.10;;;;;;;;;;4842110;29;20054;-59
2022/12/31 06:27:59;;;;;;;2.47;1.10;;;;;;;;;;4844073;29;20222;-60
2022/12/31 06:30:24;;;;;;;2.13;1.17;;;;;;;;;;4874208;29;20076;-58
2022/12/31 06:32:50;;;;;;;1.80;1.00;;;;;;;;;;4839313;29;20038;-58
2022/12/31 06:35:16;;;;;;;1.73;1.20;;;;;;;;;;4847939;29;20033;-58
2022/12/31 06:37:42;;;;;;;2.58;1.20;;;;;;;;;;4840687;29;20049;-59
2022/12/31 06:40:07;;;;;;;1.63;1.30;;;;;;;;;;4840615;29;20549;-59
2022/12/31 06:42:33;;;;;;;2.15;1.10;;;;;;;;;;4848787;29;20065;-58
2022/12/31 06:44:58;;;;;;;1.70;1.27;;;;;;;;;;4870337;29;20033;-59
2022/12/31 06:47:23;;;;;;;1.35;1.02;;;;;;;;;;4847861;29;20037;-59
2022/12/31 06:49:48;;;;;;;4.00;1.40;;;;;;;;;;4874622;29;20641;-59
2022/12/31 06:52:14;;;;;;;1.13;1.02;;;;;;;;;;4874635;29;20105;-59
2022/12/31 06:54:39;;;;;;;2.47;1.20;;;;;;;;;;4850593;29;20545;-59
2022/12/31 06:57:05;;;;;;;1.50;1.20;;;;;;;;;;4843771;29;20057;-59
2022/12/31 06:59:30;;;;;;;1.33;1.10;;;;;;;;;;4848673;29;20037;-60
2022/12/31 07:01:56;;;;;;;1.30;1.20;;;;;;;;;;4844788;29;20058;-59
2022/12/31 07:04:39;;;;;;;3.88;1.25;;;;;;;;;;4844566;29;20113;-59
2022/12/31 07:07:23;;;;;;;1.95;1.05;;;;;;;;;;4849284;29;20122;-59
2022/12/31 07:09:55;;;;;;;2.22;1.00;;;;;;;;;;4843315;29;20044;-59
2022/12/31 07:12:29;;;;;;;1.30;1.10;;;;;;;;;;4843864;29;21891;-60
2022/12/31 07:15:00;;;;;;;2.00;1.10;;;;;;;;;;4849998;29;20033;-59
2022/12/31 07:17:28;;;;;;;1.27;1.10;;;;;;;;;;4842476;29;20065;-59
2022/12/31 07:20:08;;;;;;;2.05;1.40;;;;;;;;;;4849270;29;20037;-59
2022/12/31 07:22:33;;;;;;;1.48;1.10;;;;;;;;;;4844984;29;20037;-60
2022/12/31 07:24:59;;;;;;;2.22;1.00;;;;;;;;;;4872823;29;20052;-59
2022/12/31 07:27:31;;;;;;;2.00;1.25;;;;;;;;;;4850084;29;20146;-59
2022/12/31 07:30:10;;;;;;;2.25;1.15;;;;;;;;;;4844504;29;20030;-59
2022/12/31 07:32:35;;;;;;;2.40;1.42;;;;;;;;;;4845483;29;20063;-59
2022/12/31 07:35:23;;;;;;;4.22;1.90;;;;;;;;;;4848953;29;20121;-59
2022/12/31 07:37:48;;;;;;;1.65;1.40;;;;;;;;;;4844589;29;20042;-59
2022/12/31 07:40:37;;;;;;;2.60;1.20;;;;;;;;;;4850345;29;20032;-60
2022/12/31 07:43:12;;;;;;;1.48;1.15;;;;;;;;;;4877220;29;20041;-59
2022/12/31 07:45:49;;;;;;;3.75;1.25;;;;;;;;;;4844770;29;20148;-59
2022/12/31 07:48:21;;;;;;;1.55;1.30;;;;;;;;;;4848253;29;20049;-59
2022/12/31 07:50:46;;;;;;;3.22;1.23;;;;;;;;;;4843775;29;20104;-59
2022/12/31 07:53:12;;;;;;;1.15;1.05;;;;;;;;;;4844682;29;20421;-60
2022/12/31 07:55:37;;;;;;;1.00;1.00;;;;;;;;;;4850264;29;21060;-60
2022/12/31 07:58:07;;;;;;;3.10;1.15;;;;;;;;;;4844308;29;20134;-58
2022/12/31 08:00:33;;;;;;;3.33;1.35;;;;;;;;;;4849460;29;20073;-58
2022/12/31 08:03:12;;;;;;;2.40;1.27;;;;;;;;;;4842289;29;20801;-58
2022/12/31 08:05:56;;;;;;;1.52;1.42;;;;;;;;;;4873128;29;20044;-58
2022/12/31 08:08:27;;;;;;;2.97;1.40;;;;;;;;;;4848686;29;20061;-58
2022/12/31 08:10:58;;;;;;;2.33;1.45;;;;;;;;;;4845560;29;20034;-58
2022/12/31 08:13:23;;;;;;;1.20;1.00;;;;;;;;;;4842426;29;20033;-58
2022/12/31 08:15:48;;;;;;;1.35;1.10;;;;;;;;;;4848840;29;20040;-58
2022/12/31 08:18:14;;;;;;;1.35;1.20;;;;;;;;;;4844415;29;20065;-58
2022/12/31 08:20:54;;;;;;;4.90;1.50;;;;;;;;;;4852364;29;20547;-58
2022/12/31 08:23:22;;;;;;;1.55;1.30;;;;;;;;;;4842103;29;20128;-58
2022/12/31 08:25:47;;;;;;;1.42;1.08;;;;;;;;;;4842979;29;20029;-59
2022/12/31 08:28:45;;;;;;;1.75;1.20;;;;;;;;;;4850475;29;20100;-58
2022/12/31 08:31:18;;;;;;;2.20;1.00;;;;;;;;;;4862424;29;20065;-58
2022/12/31 08:33:54;;;;;;;1.20;1.10;;;;;;;;;;4845182;29;21209;-58
2022/12/31 08:36:30;;;;;;;1.70;1.17;;;;;;;;;;4850085;29;20074;-58
2022/12/31 08:39:00;;;;;;;1.80;1.13;;;;;;;;;;4845843;29;20112;-58
2022/12/31 08:41:31;;;;;;;1.65;1.13;;;;;;;;;;4872760;29;20025;-58
2022/12/31 08:44:12;;;;;;;2.42;1.15;;;;;;;;;;4848997;29;20029;-58
2022/12/31 08:46:45;;;;;;;1.67;1.30;;;;;;;;;;4842374;29;20659;-58
2022/12/31 08:49:10;;;;;;;2.25;1.27;;;;;;;;;;4842661;29;20045;-59
2022/12/31 08:51:36;;;;;;;2.63;1.20;;;;;;;;;;4845375;29;20037;-58
2022/12/31 08:54:01;;;;;;;3.17;1.23;;;;;;;;;;4841508;29;20040;-58
2022/12/31 08:56:39;;;;;;;1.23;1.00;;;;;;;;;;4849613;29;20033;-59
2022/12/31 08:59:14;;;;;;;2.88;1.30;;;;;;;;;;4841389;29;20033;-59
2022/12/31 09:01:42;;;;;;;2.78;1.20;;;;;;;;;;4870342;29;20073;-59
2022/12/31 09:04:18;;;;;;;3.83;1.30;;;;;;;;;;4847699;29;20035;-59
2022/12/31 09:06:54;;;;;;;1.88;1.30;;;;;;;;;;4842376;29;20091;-58
2022/12/31 09:09:29;;;;;;;1.33;1.10;;;;;;;;;;4845073;29;20109;-59
2022/12/31 09:12:13;;;;;;;1.73;1.30;;;;;;;;;;4875809;29;20046;-59
2022/12/31 09:14:43;;;;;;;2.22;1.17;;;;;;;;;;4841811;29;20034;-59
2022/12/31 09:17:08;;;;;;;1.88;1.27;;;;;;;;;;4848646;29;20104;-59
2022/12/31 09:19:33;;;;;;;3.25;1.20;;;;;;;;;;4844395;29;20030;-59
2022/12/31 09:21:59;;;;;;;1.10;1.00;;;;;;;;;;4841905;29;20120;-58
2022/12/31 09:24:24;;;;;;;1.30;1.10;;;;;;;;;;4848798;29;20037;-58
2022/12/31 09:27:01;;;;;;;2.05;1.27;;;;;;;;;;4842684;29;20738;-59
2022/12/31 09:29:30;;;;;;;2.38;1.20;;;;;;;;;;4847255;29;20057;-59
2022/12/31 09:32:03;;;;;;;2.13;1.23;;;;;;;;;;4843926;29;20068;-58
2022/12/31 09:34:33;;;;;;;2.53;1.40;;;;;;;;;;4843855;29;20029;-58
2022/12/31 09:37:01;;;;;;;1.52;1.10;;;;;;;;;;4848748;29;20056;-58
2022/12/31 09:39:36;;;;;;;3.40;1.08;;;;;;;;;;4842444;29;20037;-59
2022/12/31 09:42:19;;;;;;;4.05;1.30;;;;;;;;;;4841733;29;20037;-59
2022/12/31 09:45:03;;;;;;;1.55;1.08;;;;;;;;;;4848873;29;20044;-59
2022/12/31 09:47:47;;;;;;;2.47;1.00;;;;;;;;;;4843782;29;20105;-58
2022/12/31 09:50:31;;;;;;;2.35;1.10;;;;;;;;;;4867640;29;20044;-58
2022/12/31 09:53:02;;;;;;;2.88;1.20;;;;;;;;;;4848540;29;20043;-58
2022/12/31 09:55:31;;;;;;;1.35;1.10;;;;;;;;;;4842527;29;20057;-59
2022/12/31 09:58:11;;;;;;;1.10;1.00;;;;;;;;;;4839302;29;20033;-59
2022/12/31 10:00:37;;;;;;;3.53;1.30;;;;;;;;;;4847591;29;20404;-58
2022/12/31 10:03:28;;;;;;;1.50;1.13;;;;;;;;;;4836811;29;20045;-59
2022/12/31 10:05:53;;;;;;;1.58;1.15;;;;;;;;;;4874521;29;21115;-59
2022/12/31 10:08:19;;;;;;;4.15;1.17;;;;;;;;;;4848422;29;20120;-58
2022/12/31 10:10:56;;;;;;;2.15;1.30;;;;;;;;;;4841949;29;20378;-59
2022/12/31 10:13:21;;;;;;;1.73;1.23;;;;;;;;;;4850168;29;20045;-58
2022/12/31 10:16:05;;;;;;;1.15;1.05;;;;;;;;;;4843294;29;20086;-59
2022/12/31 10:18:57;;;;;;;2.30;1.50;;;;;;;;;;4839991;29;20037;-59
2022/12/31 10:21:34;;;;;;;5.30;1.30;;;;;;;;;;4850668;29;20128;-59
2022/12/31 10:24:15;;;;;;;1.80;0.80;;;;;;;;;;4843646;29;20026;-59
2022/12/31 10:26:55;;;;;;;2.85;1.25;;;;;;;;;;4875662;29;20136;-59
2022/12/31 10:29:30;;;;;;;1.98;1.20;;;;;;;;;;4879182;29;20046;-59
2022/12/31 10:32:07;;;;;;;1.70;1.17;;;;;;;;;;4847360;29;20081;-58
2022/12/31 10:34:51;;;;;;;1.47;1.10;;;;;;;;;;4846388;29;20037;-58
2022/12/31 10:37:17;;;;;;;2.97;1.15;;;;;;;;;;4848975;29;20457;-59
2022/12/31 10:39:58;;;;;;;1.38;1.02;;;;;;;;;;4876089;29;20441;-59
2022/12/31 10:42:23;;;;;;;2.03;1.40;;;;;;;;;;4845622;29;20310;-59
2022/12/31 10:45:04;;;;;;;1.23;1.10;;;;;;;;;;4851549;29;20060;-59
2022/12/31 10:47:29;;;;;;;1.85;1.20;;;;;;;;;;4848082;29;20072;-60
2022/12/31 10:50:13;;;;;;;2.67;1.20;;;;;;;;;;4859062;29;20051;-59
2022/12/31 10:52:57;;;;;;;5.05;1.27;;;;;;;;;;4855848;29;20041;-59
2022/12/31 10:55:34;;;;;;;3.20;1.08;;;;;;;;;;4846596;29;20039;-59
2022/12/31 10:57:59;;;;;;;;;;;;;;;;;;4853732;29;20090;-64
2022/12/31 11:00:27;;;;;;;2.23;1.20;;;;;;;;;;4850332;29;19920;-60
2022/12/31 11:02:55;;;;;;;3.60;1.40;;;;;;;;;;4839177;29;20541;-61
2022/12/31 11:05:39;;;;;;;2.00;1.20;;;;;;;;;;4850828;29;20034;-59
2022/12/31 11:08:23;;;;;;;2.10;1.35;;;;;;;;;;4841392;29;20108;-59
2022/12/31 11:11:02;;;;;;;2.97;1.20;;;;;;;;;;4840974;29;20041;-60
2022/12/31 11:13:37;;;;;;;7.53;2.20;;;;;;;;;;4848686;29;20469;-60
2022/12/31 11:16:14;;;;;;;5.32;2.45;;;;;;;;;;4841762;29;20036;-60
2022/12/31 11:18:48;;;;;;;2.75;1.38;;;;;;;;;;4845574;29;20041;-60
2022/12/31 11:21:14;;;;;;;5.22;2.13;;;;;;;;;;4849097;29;20037;-60
2022/12/31 11:23:51;;;;;;;1.77;1.40;;;;;;;;;;4843146;29;20030;-60
2022/12/31 11:26:43;;;;;;;2.38;1.30;;;;;;;;;;4850152;29;20113;-59
2022/12/31 11:29:23;;;;;;;2.42;1.25;;;;;;;;;;4852379;29;20112;-59
2022/12/31 11:32:14;;;;;;;3.90;1.30;;;;;;;;;;4843556;29;20072;-60
2022/12/31 11:34:47;;;;;;;2.63;1.23;;;;;;;;;;4855841;29;20041;-58
2022/12/31 11:37:31;;;;;;;1.98;1.00;;;;;;;;;;4848944;29;20033;-60
2022/12/31 11:40:05;;;;;;;2.00;0.93;;;;;;;;;;4842026;29;20025;-59
2022/12/31 11:42:30;;;;;;;1.90;1.00;;;;;;;;;;4850201;29;20038;-60
2022/12/31 11:44:58;;;;;;;2.40;1.40;;;;;;;;;;4872356;29;20029;-60
2022/12/31 11:47:42;;;;;;;1.23;1.13;;;;;;;;;;4846826;29;20532;-60
2022/12/31 11:50:30;;;;;;;2.28;1.20;;;;;;;;;;4849293;29;20049;-59
2022/12/31 11:53:14;;;;;;;3.22;1.23;;;;;;;;;;4844326;29;20033;-60
2022/12/31 11:55:45;;;;;;;3.58;1.17;;;;;;;;;;4845993;29;20033;-60
2022/12/31 11:58:15;;;;;;;3.65;1.08;;;;;;;;;;4849014;29;20029;-60
2022/12/31 12:00:43;;;;;;;3.45;1.23;;;;;;;;;;4845255;29;20116;-59
2022/12/31 12:03:09;;;;;;;2.78;1.10;;;;;;;;;;4875736;29;20037;-59
2022/12/31 12:05:35;;;;;;;1.05;0.93;;;;;;;;;;4846352;29;20469;-60
2022/12/31 12:08:00;;;;;;;2.67;1.20;;;;;;;;;;4846906;29;20498;-59
2022/12/31 12:10:28;;;;;;;2.15;1.30;;;;;;;;;;4850192;29;20033;-59
2022/12/31 12:12:53;;;;;;;;;;;;;;;;;;4842648;29;20030;-60
2022/12/31 12:15:21;;;;;;;1.80;1.10;;;;;;;;;;4873095;29;21572;-60
2022/12/31 12:17:55;;;;;;;1.05;0.93;;;;;;;;;;4848481;29;20091;-60
2022/12/31 12:20:25;;;;;;;2.00;1.00;;;;;;;;;;4847321;29;20029;-60
2022/12/31 12:22:53;;;;;;;1.35;1.00;;;;;;;;;;4844036;29;20061;-60
2022/12/31 12:25:20;;;;;;;1.13;0.85;;;;;;;;;;4847124;29;20026;-60
2022/12/31 12:27:45;;;;;;;1.00;0.93;;;;;;;;;;4842354;29;20128;-59
2022/12/31 12:30:16;;;;;;;1.27;1.00;;;;;;;;;;4877020;29;20037;-60
2022/12/31 12:32:51;;;;;;;1.77;0.80;;;;;;;;;;4843802;29;20058;-59
2022/12/31 12:35:22;;;;;;;1.70;1.13;;;;;;;;;;4843707;29;20037;-60
2022/12/31 12:37:56;;;;;;;1.40;0.90;;;;;;;;;;4847165;29;20128;-60
2022/12/31 12:40:25;;;;;;;3.45;1.10;;;;;;;;;;4841977;29;20473;-59
2022/12/31 12:42:52;;;;;;;1.30;1.10;;;;;;;;;;4847813;29;20033;-59
2022/12/31 12:45:19;;;;;;;1.35;0.98;;;;;;;;;;4841288;29;20400;-60
2022/12/31 12:47:44;;;;;;;;;;;;;;;;;;4846730;29;20041;-60
2022/12/31 12:50:17;;;;;;;5.47;1.20;;;;;;;;;;4845714;29;19923;-59
2022/12/31 12:52:58;;;;;;;2.20;1.30;;;;;;;;;;4843715;29;20053;-59
2022/12/31 12:55:38;;;;;;;1.95;1.23;;;;;;;;;;4843450;29;20508;-60
2022/12/31 12:58:09;;;;;;;1.23;0.90;;;;;;;;;;4848809;29;20037;-59
2022/12/31 13:00:49;;;;;;;1.58;1.35;;;;;;;;;;4838416;29;20161;-60
2022/12/31 13:03:24;;;;;;;3.17;1.20;;;;;;;;;;4845172;29;20046;-61
2022/12/31 13:05:56;;;;;;;1.50;1.17;;;;;;;;;;4847401;29;20590;-60
2022/12/31 13:08:27;;;;;;;1.88;1.25;;;;;;;;;;4872000;29;20045;-60
2022/12/31 13:11:14;;;;;;;1.25;1.02;;;;;;;;;;4843753;29;20025;-60
2022/12/31 13:13:49;;;;;;;1.63;1.10;;;;;;;;;;4840292;29;20037;-60
2022/12/31 13:16:21;;;;;;;2.25;1.30;;;;;;;;;;4839555;29;20064;-60
2022/12/31 13:18:58;;;;;;;2.38;1.05;;;;;;;;;;4876556;29;20117;-60
2022/12/31 13:21:27;;;;;;;1.00;0.90;;;;;;;;;;4840640;29;20121;-60
2022/12/31 13:23:58;;;;;;;2.40;0.98;;;;;;;;;;4843899;29;20465;-60
2022/12/31 13:26:27;;;;;;;2.03;1.30;;;;;;;;;;4848256;29;20038;-60
2022/12/31 13:28:52;;;;;;;3.50;1.30;;;;;;;;;;4840294;29;20121;-60
2022/12/31 13:31:23;;;;;;;2.63;1.10;;;;;;;;;;4847293;29;20723;-61
2022/12/31 13:33:51;;;;;;;3.28;1.33;;;;;;;;;;4841265;29;20607;-61
2022/12/31 13:36:19;;;;;;;1.80;1.10;;;;;;;;;;4841788;29;20029;-61
2022/12/31 13:38:54;;;;;;;2.10;1.08;;;;;;;;;;4847737;29;20041;-61
2022/12/31 13:41:32;;;;;;;3.53;1.40;;;;;;;;;;4843286;29;20458;-61
2022/12/31 13:43:58;;;;;;;2.55;1.45;;;;;;;;;;4842674;29;20033;-59
2022/12/31 13:46:41;;;;;;;4.50;1.73;;;;;;;;;;4877544;29;20377;-60
2022/12/31 13:49:13;;;;;;;3.47;1.50;;;;;;;;;;4842010;29;20053;-60
2022/12/31 13:51:41;;;;;;;2.28;1.25;;;;;;;;;;4844106;29;20041;-62
2022/12/31 13:54:19;;;;;;;3.60;1.30;;;;;;;;;;4846848;29;20085;-61
2022/12/31 13:56:46;;;;;;;3.25;1.27;;;;;;;;;;4844154;29;20072;-61
2022/12/31 13:59:21;;;;;;;2.53;1.33;;;;;;;;;;4851643;29;20072;-61
2022/12/31 14:02:05;;;;;;;2.67;1.20;;;;;;;;;;4844632;29;20529;-61
2022/12/31 14:04:32;;;;;;;1.70;1.13;;;;;;;;;;4845056;29;20072;-62
2022/12/31 14:07:01;;;;;;;2.88;1.48;;;;;;;;;;4851655;29;20034;-61
2022/12/31 14:09:30;;;;;;;3.28;1.50;;;;;;;;;;4844840;29;20709;-60
2022/12/31 14:12:05;;;;;;;5.20;1.95;;;;;;;;;;4873873;29;20187;-60
2022/12/31 14:14:40;;;;;;;4.30;1.73;;;;;;;;;;4850585;29;20084;-62
2022/12/31 14:17:25;;;;;;;3.85;1.88;;;;;;;;;;4843756;29;20033;-63
2022/12/31 14:20:05;;;;;;;4.57;1.58;;;;;;;;;;4849552;29;20041;-62
2022/12/31 14:22:57;;;;;;;3.65;2.00;;;;;;;;;;4849436;29;20785;-61
2022/12/31 14:25:42;;;;;;;3.45;1.75;;;;;;;;;;4844477;29;20723;-61
2022/12/31 14:28:14;;;;;;;4.63;2.58;;;;;;;;;;4843683;29;20053;-61
2022/12/31 14:30:41;;;;;;;4.63;2.47;;;;;;;;;;4852151;29;20051;-61
2022/12/31 14:33:12;;;;;;;4.78;2.10;;;;;;;;;;4843020;29;20029;-60
2022/12/31 14:35:56;;;;;;;7.82;2.67;;;;;;;;;;4850376;29;20040;-61
2022/12/31 14:38:36;;;;;;;4.75;2.17;;;;;;;;;;4845476;29;20041;-60
2022/12/31 14:41:14;;;;;;;6.53;2.25;;;;;;;;;;4877208;29;20648;-61
2022/12/31 14:43:58;;;;;;;6.13;2.20;;;;;;;;;;4850937;29;20636;-60
2022/12/31 14:46:42;;;;;;;5.78;2.50;;;;;;;;;;4845358;29;20504;-61
2022/12/31 14:49:26;;;;;;;5.68;2.63;;;;;;;;;;4846146;29;20478;-60
2022/12/31 14:51:51;;;;;;;8.80;2.60;;;;;;;;;;4876705;29;20077;-61
2022/12/31 14:54:27;;;;;;;4.30;1.90;;;;;;;;;;4845381;29;20190;-60
2022/12/31 14:56:52;;;;;;;3.40;1.90;;;;;;;;;;4842381;29;20038;-61
2022/12/31 14:59:23;;;;;;;3.75;2.05;;;;;;;;;;4850763;29;20092;-60
2022/12/31 15:01:48;;;;;;;4.53;2.30;;;;;;;;;;4846534;29;20828;-60
2022/12/31 15:04:14;;;;;;;6.05;1.95;;;;;;;;;;4844090;29;20041;-60
2022/12/31 15:06:56;;;;;;;5.35;2.30;;;;;;;;;;4847215;29;20049;-60
2022/12/31 15:09:48;;;;;;;5.32;2.47;;;;;;;;;;4841986;29;20064;-60
2022/12/31 15:12:13;;;;;;;7.00;2.58;;;;;;;;;;4868031;29;20121;-60
2022/12/31 15:14:57;;;;;;;7.18;2.90;;;;;;;;;;4846800;29;20028;-61